Terminal Aerodrome Forecast
Issued by NWS Norman, OK

Home | Current Version | Previous Version | Text Only | Print | Product List | Glossary On
Versions: 1 2 3 4 5 6 7 8 9 10 11 12 13 14 15 16 17 18 19 20 21 22 23 24 25 26 27 28 29 30
008
FTUS44 KOUN 202321
TAFSPS
TAF
KSPS 202321Z 2100/2124 13015KT P6SM SCT080 SCT250
      TEMPO 2106/2109 -SHRA SCT015 OVC050
     FM210900 12013KT 4SM -TSRA BR OVC012CB
     FM211600 09012KT 6SM -SHRA BR OVC006=

USA.gov is the U.S. government's official web portal to all federal, state and local government web resources and services.